Tuesday, May 21, 2019, 3:04 PM EDT
Back to Local

KEWN, New Bern, Craven County Regional Airport

Location: New Bern, NC, United States Lat: 35.068
Local Time: 3:04 PM EDT (19:04 GMT) Lon: -77.047
Time Zone: US/Eastern Elev: 16 ft

Show me the last for .
Show Decoded

2019-05-21 13:54 METAR KEWN 211754Z 03006KT 10SM CLR 31/17 A2996 RMK AO2 SLP144 T03110172 10311
                 20233 58004 =
2019-05-21 12:54 METAR KEWN 211654Z VRB04KT 10SM CLR 29/17 A2996 RMK AO2 SLP145 T02940167 =
2019-05-21 11:54 METAR KEWN 211554Z VRB05KT 10SM CLR 29/18 A2997 RMK AO2 SLP148 T02940183 =
2019-05-21 10:54 METAR KEWN 211454Z VRB04KT 10SM CLR 28/19 A2997 RMK AO2 SLP149 T02780194 51002 =
2019-05-21 09:54 METAR KEWN 211354Z 31008KT 10SM CLR 27/21 A2997 RMK AO2 SLP148 T02670206 =
2019-05-21 09:18 METAR KEWN 211318Z 33005KT 10SM SCT016 26/21 A2997 RMK AO2 T02560211 =
2019-05-21 09:09 METAR KEWN 211309Z 28006KT 10SM BKN016 26/21 A2997 RMK AO2 T02560211 =
2019-05-21 08:54 METAR KEWN 211254Z 29006KT 10SM SCT014 25/21 A2997 RMK AO2 SLP149 T02500211 =
2019-05-21 07:54 METAR KEWN 211154Z 26005KT 10SM OVC010 23/22 A2997 RMK AO2 SLP147 T02330217
                 10233 20211 53012 =
2019-05-21 07:19 METAR KEWN 211119Z 26008KT 10SM OVC010 23/22 A2996 RMK AO2 T02280217 =
2019-05-21 07:11 METAR KEWN 211111Z 25006KT 10SM OVC009 23/22 A2995 RMK AO2 CIG 008V013 T02280217
                 =
2019-05-21 06:54 METAR KEWN 211054Z 24004KT 10SM BKN010 22/22 A2995 RMK AO2 SLP142 T02220217 =
2019-05-21 06:47 METAR KEWN 211047Z 22004KT 10SM BKN010 BKN120 22/22 A2995 RMK AO2 T02220217 =
2019-05-21 05:54 METAR KEWN 210954Z 22003KT 10SM FEW012 FEW060 BKN120 22/21 A2994 RMK AO2 SLP137
                 T02170211 =
2019-05-21 05:27 METAR KEWN 210927Z AUTO 25004KT 10SM SCT013 BKN036 OVC100 22/21 A2994 RMK AO2
                 T02220211 =
2019-05-21 05:18 METAR KEWN 210918Z AUTO 24004KT 10SM BKN013 OVC110 22/21 A2994 RMK AO2 T02220211
                 =
2019-05-21 04:54 METAR KEWN 210854Z AUTO 23005KT 10SM FEW065 SCT110 22/21 A2993 RMK AO2 SLP135
                 T02170211 55000 =
2019-05-21 03:54 METAR KEWN 210754Z AUTO 23005KT 10SM FEW060 22/21 A2993 RMK AO2 SLP133 T02220211
                 =
2019-05-21 02:54 METAR KEWN 210654Z AUTO 21006KT 10SM BKN110 22/21 A2993 RMK AO2 SLP134 T02220211
                 =
2019-05-21 01:54 METAR KEWN 210554Z AUTO 21007KT 10SM CLR 23/21 A2993 RMK AO2 SLP135 T02280206
                 10250 20222 58015 =
2019-05-21 00:54 METAR KEWN 210454Z AUTO 22009KT 10SM BKN100 23/21 A2995 RMK AO2 SLP142 T02280206
                 403110200 =
2019-05-20 23:54 METAR KEWN 210354Z AUTO 21008KT 10SM FEW020 SCT028 23/21 A2998 RMK AO2 SLP151
                 T02280206 =
2019-05-20 22:54 METAR KEWN 210254Z AUTO 21010KT 10SM CLR 23/21 A2997 RMK AO2 SLP150 T02280206
                 53012 =
2019-05-20 21:54 METAR KEWN 210154Z AUTO 21009KT 10SM CLR 23/21 A2996 RMK AO2 SLP145 T02280206 =
2019-05-20 20:54 METAR KEWN 210054Z 20008KT 10SM FEW003 23/20 A2995 RMK AO2 SLP141 T02330200 =
2019-05-20 20:32 METAR KEWN 210032Z 20008KT 10SM FEW003 24/20 A2994 RMK AO2 T02390200 =
2019-05-20 19:54 METAR KEWN 202354Z 19008KT 10SM CLR 25/19 A2994 RMK AO2 SLP138 T02500194 10311
                 20250 53001 =
2019-05-20 18:54 METAR KEWN 202254Z 18012KT 10SM CLR 27/20 A2993 RMK AO2 SLP136 T02670200 =
2019-05-20 17:54 METAR KEWN 202154Z 19010G18KT 10SM CLR 28/20 A2994 RMK AO2 SLP136 T02830200 =
2019-05-20 16:54 METAR KEWN 202054Z 18012KT 10SM CLR 29/21 A2994 RMK AO2 SLP137 T02890206 56017 =
2019-05-20 15:54 METAR KEWN 201954Z 20011KT 10SM FEW050 SCT065 30/21 A2995 RMK AO2 SLP141
                 T03000211 =

Support USWX by starting your Amazon purchase here.